createdAt,value
2022-10-31T00:02:08.496Z,34.23
2022-10-31T00:07:11.542Z,31.53
2022-10-31T00:12:15.073Z,28.83
2022-10-31T00:17:18.342Z,28.87
2022-10-31T00:22:21.612Z,30.37
2022-10-31T00:27:25.072Z,31.87
2022-10-31T00:32:31.744Z,33.60
2022-10-31T00:37:34.855Z,30.00
2022-10-31T00:42:38.061Z,30.43
2022-10-31T00:47:41.317Z,29.47
2022-10-31T00:52:44.572Z,30.43
2022-10-31T00:57:50.771Z,29.57
2022-10-31T01:02:54.248Z,29.30
2022-10-31T01:07:57.577Z,28.97
2022-10-31T01:13:01.105Z,29.77
2022-10-31T01:18:04.621Z,30.20
2022-10-31T01:23:07.900Z,29.73
2022-10-31T01:28:11.356Z,29.57
2022-10-31T01:33:15.100Z,29.83
2022-10-31T01:38:18.372Z,30.33
2022-10-31T01:48:29.202Z,28.90
2022-10-31T01:53:33.602Z,29.40
2022-10-31T01:58:37.535Z,27.83
2022-10-31T02:03:41.042Z,28.93
2022-10-31T02:08:45.695Z,32.67
2022-10-31T02:13:49.553Z,29.50
2022-10-31T02:18:52.992Z,31.30
2022-10-31T02:24:38.943Z,29.33
2022-10-31T02:30:03.354Z,28.67
2022-10-31T02:35:22.573Z,29.07
2022-10-31T02:40:36.723Z,28.13
2022-10-31T02:46:09.092Z,24.93
2022-10-31T02:51:14.050Z,22.77
2022-10-31T02:56:20.033Z,23.17
2022-10-31T03:01:36.462Z,23.37
2022-10-31T03:07:01.130Z,23.67
2022-10-31T03:12:44.551Z,23.67
2022-10-31T03:18:12.474Z,24.13
2022-10-31T03:23:18.173Z,23.13
2022-10-31T03:28:28.900Z,24.53
2022-10-31T03:33:37.641Z,23.60
2022-10-31T03:38:42.929Z,25.40
2022-10-31T03:43:54.972Z,22.93
2022-10-31T03:48:59.542Z,26.07
2022-10-31T03:54:10.735Z,23.30
2022-10-31T03:59:30.383Z,25.43
2022-10-31T04:04:35.000Z,24.47
2022-10-31T04:09:43.192Z,26.63
2022-10-31T04:14:49.624Z,29.77
2022-10-31T04:19:53.449Z,26.77
2022-10-31T04:24:56.780Z,24.47
2022-10-31T04:30:01.051Z,26.93
2022-10-31T04:35:04.500Z,27.03
2022-10-31T04:40:08.338Z,24.83
2022-10-31T04:45:15.469Z,25.60
2022-10-31T04:50:21.701Z,24.27
2022-10-31T04:55:24.712Z,23.53
2022-10-31T05:00:27.909Z,24.37
2022-10-31T05:05:32.734Z,24.77
2022-10-31T05:10:35.930Z,27.43
2022-10-31T05:15:39.310Z,24.63
2022-10-31T05:20:42.772Z,24.70
2022-10-31T05:25:45.812Z,25.37
2022-10-31T05:30:49.044Z,23.53
2022-10-31T05:35:52.058Z,24.20
2022-10-31T05:41:04.073Z,23.17
2022-10-31T05:46:07.319Z,23.00
2022-10-31T05:51:10.737Z,23.63
2022-10-31T05:56:14.123Z,22.30
2022-10-31T06:01:17.544Z,23.57
2022-10-31T06:06:21.069Z,22.63
2022-10-31T06:11:24.600Z,23.37
2022-10-31T06:16:28.053Z,22.93
2022-10-31T06:21:31.360Z,23.10
2022-10-31T06:26:34.570Z,24.50
2022-10-31T06:31:37.770Z,25.80
2022-10-31T06:36:41.541Z,24.57
2022-10-31T06:41:45.103Z,25.20
2022-10-31T06:46:49.009Z,24.93
2022-10-31T06:51:52.650Z,25.23
2022-10-31T06:56:55.640Z,22.43
2022-10-31T07:02:00.037Z,22.10
2022-10-31T07:07:07.057Z,23.53
2022-10-31T07:12:10.861Z,22.83
2022-10-31T07:17:13.850Z,24.20
2022-10-31T07:22:16.892Z,26.77
2022-10-31T07:27:20.302Z,25.57
2022-10-31T07:32:23.679Z,24.67
2022-10-31T07:37:29.291Z,22.63
2022-10-31T07:42:44.000Z,21.30
2022-10-31T07:47:50.212Z,20.73
2022-10-31T07:53:11.040Z,20.63
2022-10-31T07:58:16.755Z,19.60
2022-10-31T08:03:21.079Z,19.87
2022-10-31T08:08:25.495Z,18.90
2022-10-31T08:13:30.621Z,17.70
2022-10-31T08:18:34.572Z,18.63
2022-10-31T08:23:39.283Z,20.20
2022-10-31T08:28:43.940Z,20.03
2022-10-31T08:33:48.330Z,18.10
2022-10-31T08:38:52.033Z,19.83
2022-10-31T08:43:55.572Z,23.23
2022-10-31T08:48:59.472Z,22.80
2022-10-31T08:54:02.929Z,22.00
2022-10-31T08:59:06.520Z,28.40
2022-10-31T09:04:09.501Z,23.07
2022-10-31T09:09:12.528Z,23.40
2022-10-31T09:14:15.824Z,24.40
2022-10-31T09:19:19.604Z,24.53
2022-10-31T09:24:23.525Z,24.40
2022-10-31T09:29:26.867Z,25.47
2022-10-31T09:34:30.230Z,26.20
2022-10-31T09:39:33.530Z,26.33
2022-10-31T09:44:52.373Z,26.63
2022-10-31T09:50:08.035Z,29.97
2022-10-31T09:55:22.128Z,27.43
2022-10-31T10:00:25.219Z,37.37
2022-10-31T10:05:55.849Z,41.97
2022-10-31T10:11:20.263Z,37.30
2022-10-31T10:16:42.160Z,32.50
2022-10-31T10:22:00.679Z,30.90
2022-10-31T10:27:28.002Z,31.97
2022-10-31T10:32:35.509Z,32.73
2022-10-31T10:37:43.638Z,33.63
2022-10-31T10:43:19.823Z,30.60
2022-10-31T10:48:38.360Z,31.53
2022-10-31T10:54:07.977Z,33.57
2022-10-31T10:59:17.830Z,32.73
2022-10-31T11:04:34.710Z,26.80
2022-10-31T11:09:39.330Z,28.80
2022-10-31T11:14:49.288Z,31.83
2022-10-31T11:20:06.930Z,35.77
2022-10-31T11:25:27.708Z,33.93
2022-10-31T11:30:32.718Z,34.00
2022-10-31T11:35:42.525Z,31.53
2022-10-31T11:41:00.372Z,30.40
2022-10-31T11:46:16.937Z,32.67
2022-10-31T11:51:33.075Z,29.03
2022-10-31T11:56:41.431Z,28.53
2022-10-31T12:01:51.249Z,32.53
2022-10-31T12:06:56.441Z,27.23
2022-10-31T12:12:07.652Z,29.77
2022-10-31T12:17:14.217Z,33.07
2022-10-31T12:22:41.774Z,29.60
2022-10-31T12:28:23.989Z,31.13
2022-10-31T12:33:36.674Z,32.70
2022-10-31T12:38:41.133Z,32.03
2022-10-31T12:43:50.716Z,31.73
2022-10-31T12:49:28.909Z,32.50
2022-10-31T12:54:44.022Z,32.17
2022-10-31T13:00:12.028Z,30.87
2022-10-31T13:05:15.541Z,32.00
2022-10-31T13:10:25.341Z,31.00
2022-10-31T13:15:33.378Z,31.80
2022-10-31T13:20:55.971Z,28.70
2022-10-31T13:26:03.500Z,28.17
2022-10-31T13:31:06.522Z,30.40
2022-10-31T13:36:39.339Z,28.90
2022-10-31T13:41:54.355Z,27.00
2022-10-31T13:46:59.719Z,26.47
2022-10-31T13:52:11.721Z,25.07
2022-10-31T13:57:36.150Z,27.30
2022-10-31T14:02:46.400Z,26.37
2022-10-31T14:07:50.887Z,32.53
2022-10-31T14:12:56.880Z,31.47
2022-10-31T14:18:03.629Z,30.30
2022-10-31T14:23:31.878Z,31.90
2022-10-31T14:28:36.890Z,30.43
2022-10-31T14:33:44.459Z,33.50
2022-10-31T14:39:17.099Z,31.83
2022-10-31T14:44:44.450Z,31.60
2022-10-31T14:50:09.770Z,34.07
2022-10-31T14:55:15.735Z,34.70
2022-10-31T15:00:21.990Z,35.20
2022-10-31T15:05:27.617Z,36.97
2022-10-31T15:10:34.691Z,35.33
2022-10-31T15:15:38.711Z,32.27
2022-10-31T15:20:46.481Z,30.03
2022-10-31T15:25:49.480Z,29.00
2022-10-31T15:30:55.655Z,28.23
2022-10-31T15:36:04.026Z,29.30
2022-10-31T15:41:26.010Z,28.13
2022-10-31T15:46:29.788Z,28.47
2022-10-31T15:51:35.310Z,28.10
2022-10-31T15:56:39.440Z,27.17
2022-10-31T16:01:42.860Z,24.90
2022-10-31T16:06:57.929Z,25.60
2022-10-31T16:12:01.313Z,25.07
2022-10-31T16:17:04.500Z,25.40
2022-10-31T16:22:11.693Z,26.67
2022-10-31T16:27:27.269Z,27.57
2022-10-31T16:32:56.582Z,28.23
2022-10-31T16:37:59.980Z,31.10
2022-10-31T16:43:03.766Z,30.73
2022-10-31T16:48:12.224Z,36.13
2022-10-31T16:53:17.557Z,37.37
2022-10-31T16:58:29.829Z,39.30
2022-10-31T17:03:33.510Z,38.70
2022-10-31T17:08:37.597Z,38.67
2022-10-31T17:13:41.458Z,37.17
2022-10-31T17:18:46.749Z,32.43
2022-10-31T17:23:50.890Z,30.97
2022-10-31T17:28:56.690Z,31.63
2022-10-31T17:34:02.686Z,33.80
2022-10-31T17:39:09.890Z,34.80
2022-10-31T17:44:14.424Z,37.33
2022-10-31T17:49:18.510Z,38.30
2022-10-31T17:54:23.169Z,43.57
2022-10-31T17:59:30.597Z,44.60
2022-10-31T18:04:34.564Z,43.97
2022-10-31T18:09:38.090Z,46.27
2022-10-31T18:14:47.292Z,44.47
2022-10-31T18:19:51.669Z,39.97
2022-10-31T18:25:00.873Z,35.10
2022-10-31T18:30:05.834Z,28.40
2022-10-31T18:35:09.530Z,28.00
2022-10-31T18:40:14.401Z,33.70
2022-10-31T18:45:32.604Z,30.23
2022-10-31T18:50:41.558Z,22.67
2022-10-31T18:55:47.640Z,23.60
2022-10-31T19:00:54.622Z,24.07
2022-10-31T19:05:58.159Z,23.17
2022-10-31T19:11:14.111Z,21.87
2022-10-31T19:16:18.503Z,21.23
2022-10-31T19:21:23.864Z,19.73
2022-10-31T19:26:29.643Z,21.47
2022-10-31T19:31:33.320Z,21.80
2022-10-31T19:36:37.800Z,20.80
2022-10-31T19:41:41.990Z,21.20
2022-10-31T19:46:53.445Z,23.83
2022-10-31T19:51:57.979Z,23.13
2022-10-31T19:57:01.760Z,24.23
2022-10-31T20:02:06.180Z,24.87
2022-10-31T20:07:11.430Z,27.93
2022-10-31T20:12:17.661Z,30.27
2022-10-31T20:17:21.313Z,31.87
2022-10-31T20:22:25.431Z,29.83
2022-10-31T20:28:09.102Z,30.57
2022-10-31T20:39:41.251Z,30.03
2022-10-31T20:45:25.461Z,29.57
2022-10-31T20:50:39.428Z,32.00
2022-10-31T20:56:19.721Z,33.30
2022-10-31T21:02:17.102Z,28.40
2022-10-31T21:08:20.429Z,28.10
2022-10-31T21:14:46.611Z,26.40
2022-10-31T21:20:21.970Z,26.63
2022-10-31T21:25:52.638Z,27.63
2022-10-31T21:31:16.899Z,27.07
2022-10-31T22:46:01.138Z,31.07
2022-10-31T22:51:16.300Z,32.50
2022-10-31T22:56:21.491Z,31.20
2022-10-31T23:01:30.363Z,31.27
2022-10-31T23:06:34.496Z,30.40
2022-10-31T23:11:41.051Z,31.33
2022-10-31T23:16:46.254Z,31.10
2022-10-31T23:22:00.556Z,31.23
2022-10-31T23:27:10.412Z,30.13
2022-10-31T23:32:34.387Z,30.40
2022-10-31T23:37:39.222Z,29.70
2022-10-31T23:42:42.420Z,31.93
2022-10-31T23:47:45.689Z,31.90
2022-10-31T23:52:48.951Z,34.53
2022-10-31T23:57:52.400Z,33.27
